sensor_id;sensor_type;location;lat;lon;timestamp;P1;durP1;ratioP1;P2;durP2;ratioP2
21235;SDS011;10775;42.678;26.324;2022-11-20T00:00:26;13.40;;;6.75;;
21235;SDS011;10775;42.678;26.324;2022-11-20T00:02:52;15.88;;;7.18;;
21235;SDS011;10775;42.678;26.324;2022-11-20T00:05:17;12.05;;;4.97;;
21235;SDS011;10775;42.678;26.324;2022-11-20T00:07:43;11.50;;;4.55;;
21235;SDS011;10775;42.678;26.324;2022-11-20T00:10:09;20.90;;;7.43;;
21235;SDS011;10775;42.678;26.324;2022-11-20T00:12:34;16.45;;;7.38;;
21235;SDS011;10775;42.678;26.324;2022-11-20T00:15:00;14.32;;;6.70;;
21235;SDS011;10775;42.678;26.324;2022-11-20T00:17:26;15.10;;;6.35;;
21235;SDS011;10775;42.678;26.324;2022-11-20T00:19:51;14.73;;;7.00;;
21235;SDS011;10775;42.678;26.324;2022-11-20T00:22:17;15.75;;;7.10;;
21235;SDS011;10775;42.678;26.324;2022-11-20T00:24:42;17.25;;;7.05;;
21235;SDS011;10775;42.678;26.324;2022-11-20T00:27:08;13.18;;;6.78;;
21235;SDS011;10775;42.678;26.324;2022-11-20T00:29:34;15.00;;;7.28;;
21235;SDS011;10775;42.678;26.324;2022-11-20T00:32:00;12.27;;;5.35;;
21235;SDS011;10775;42.678;26.324;2022-11-20T00:34:25;15.45;;;6.97;;
21235;SDS011;10775;42.678;26.324;2022-11-20T00:36:51;13.85;;;6.97;;
21235;SDS011;10775;42.678;26.324;2022-11-20T00:39:16;17.33;;;7.68;;
21235;SDS011;10775;42.678;26.324;2022-11-20T00:41:42;15.52;;;6.93;;
21235;SDS011;10775;42.678;26.324;2022-11-20T00:44:07;13.85;;;7.50;;
21235;SDS011;10775;42.678;26.324;2022-11-20T00:46:33;14.30;;;6.85;;
21235;SDS011;10775;42.678;26.324;2022-11-20T00:48:59;16.52;;;6.82;;
21235;SDS011;10775;42.678;26.324;2022-11-20T00:51:25;6.55;;;4.43;;
21235;SDS011;10775;42.678;26.324;2022-11-20T00:53:51;11.48;;;6.93;;
21235;SDS011;10775;42.678;26.324;2022-11-20T00:56:17;14.40;;;6.95;;
21235;SDS011;10775;42.678;26.324;2022-11-20T00:58:44;14.82;;;7.75;;
21235;SDS011;10775;42.678;26.324;2022-11-20T01:03:46;13.38;;;5.93;;
21235;SDS011;10775;42.678;26.324;2022-11-20T01:06:20;13.35;;;6.88;;
21235;SDS011;10775;42.678;26.324;2022-11-20T01:08:47;13.45;;;7.25;;
21235;SDS011;10775;42.678;26.324;2022-11-20T01:11:14;9.73;;;5.85;;
21235;SDS011;10775;42.678;26.324;2022-11-20T01:13:42;7.82;;;4.55;;
21235;SDS011;10775;42.678;26.324;2022-11-20T01:18:37;13.93;;;6.80;;
21235;SDS011;10775;42.678;26.324;2022-11-20T01:21:05;11.05;;;6.53;;
21235;SDS011;10775;42.678;26.324;2022-11-20T01:23:36;14.90;;;6.75;;
21235;SDS011;10775;42.678;26.324;2022-11-20T01:26:05;14.40;;;7.38;;
21235;SDS011;10775;42.678;26.324;2022-11-20T01:28:32;9.73;;;4.07;;
21235;SDS011;10775;42.678;26.324;2022-11-20T01:30:58;9.43;;;5.18;;
21235;SDS011;10775;42.678;26.324;2022-11-20T01:33:24;12.98;;;6.68;;
21235;SDS011;10775;42.678;26.324;2022-11-20T01:35:51;15.15;;;7.32;;
21235;SDS011;10775;42.678;26.324;2022-11-20T01:38:17;13.98;;;6.78;;
21235;SDS011;10775;42.678;26.324;2022-11-20T01:40:43;16.70;;;8.48;;
21235;SDS011;10775;42.678;26.324;2022-11-20T01:43:18;20.02;;;8.73;;
21235;SDS011;10775;42.678;26.324;2022-11-20T01:48:21;10.50;;;5.43;;
21235;SDS011;10775;42.678;26.324;2022-11-20T01:50:48;15.20;;;6.03;;
21235;SDS011;10775;42.678;26.324;2022-11-20T01:53:16;18.38;;;7.15;;
21235;SDS011;10775;42.678;26.324;2022-11-20T01:55:50;22.13;;;7.55;;
21235;SDS011;10775;42.678;26.324;2022-11-20T01:58:19;13.20;;;6.60;;
21235;SDS011;10775;42.678;26.324;2022-11-20T02:00:47;9.70;;;4.97;;
21235;SDS011;10775;42.678;26.324;2022-11-20T02:03:14;8.38;;;4.38;;
21235;SDS011;10775;42.678;26.324;2022-11-20T02:08:14;13.70;;;5.65;;
21235;SDS011;10775;42.678;26.324;2022-11-20T02:10:41;11.98;;;4.90;;
21235;SDS011;10775;42.678;26.324;2022-11-20T02:13:06;15.98;;;5.18;;
21235;SDS011;10775;42.678;26.324;2022-11-20T02:15:52;5.47;;;3.47;;
21235;SDS011;10775;42.678;26.324;2022-11-20T02:18:18;6.82;;;3.30;;
21235;SDS011;10775;42.678;26.324;2022-11-20T02:20:46;10.40;;;4.07;;
21235;SDS011;10775;42.678;26.324;2022-11-20T02:26:12;9.23;;;3.47;;
21235;SDS011;10775;42.678;26.324;2022-11-20T02:28:41;10.93;;;4.20;;
21235;SDS011;10775;42.678;26.324;2022-11-20T02:31:07;5.90;;;4.13;;
21235;SDS011;10775;42.678;26.324;2022-11-20T02:33:32;8.80;;;4.40;;
21235;SDS011;10775;42.678;26.324;2022-11-20T02:35:58;13.63;;;3.92;;
21235;SDS011;10775;42.678;26.324;2022-11-20T02:38:23;9.32;;;4.30;;
21235;SDS011;10775;42.678;26.324;2022-11-20T02:40:49;11.52;;;3.88;;
21235;SDS011;10775;42.678;26.324;2022-11-20T02:43:15;8.63;;;3.42;;
21235;SDS011;10775;42.678;26.324;2022-11-20T02:45:41;6.38;;;3.15;;
21235;SDS011;10775;42.678;26.324;2022-11-20T02:48:06;9.07;;;3.70;;
21235;SDS011;10775;42.678;26.324;2022-11-20T02:50:32;7.25;;;4.07;;
21235;SDS011;10775;42.678;26.324;2022-11-20T02:52:58;12.52;;;4.10;;
21235;SDS011;10775;42.678;26.324;2022-11-20T02:55:23;10.68;;;4.20;;
21235;SDS011;10775;42.678;26.324;2022-11-20T02:57:49;10.45;;;3.63;;
21235;SDS011;10775;42.678;26.324;2022-11-20T03:00:14;10.48;;;3.88;;
21235;SDS011;10775;42.678;26.324;2022-11-20T03:02:40;9.60;;;3.50;;
21235;SDS011;10775;42.678;26.324;2022-11-20T03:05:06;8.65;;;3.78;;
21235;SDS011;10775;42.678;26.324;2022-11-20T03:07:31;11.07;;;3.65;;
21235;SDS011;10775;42.678;26.324;2022-11-20T03:09:57;11.60;;;3.63;;
21235;SDS011;10775;42.678;26.324;2022-11-20T03:12:22;8.98;;;2.97;;
21235;SDS011;10775;42.678;26.324;2022-11-20T03:14:48;8.82;;;3.03;;
21235;SDS011;10775;42.678;26.324;2022-11-20T03:17:13;9.43;;;3.50;;
21235;SDS011;10775;42.678;26.324;2022-11-20T03:19:39;8.18;;;3.17;;
21235;SDS011;10775;42.678;26.324;2022-11-20T03:22:04;6.60;;;3.45;;
21235;SDS011;10775;42.678;26.324;2022-11-20T03:24:30;8.35;;;3.70;;
21235;SDS011;10775;42.678;26.324;2022-11-20T03:26:55;8.52;;;3.65;;
21235;SDS011;10775;42.678;26.324;2022-11-20T03:29:21;8.20;;;3.83;;
21235;SDS011;10775;42.678;26.324;2022-11-20T03:31:46;6.05;;;2.90;;
21235;SDS011;10775;42.678;26.324;2022-11-20T03:34:12;8.65;;;2.90;;
21235;SDS011;10775;42.678;26.324;2022-11-20T03:36:38;15.20;;;3.58;;
21235;SDS011;10775;42.678;26.324;2022-11-20T03:39:04;7.32;;;3.20;;
21235;SDS011;10775;42.678;26.324;2022-11-20T03:41:30;6.55;;;3.20;;
21235;SDS011;10775;42.678;26.324;2022-11-20T03:44:00;8.38;;;3.28;;
21235;SDS011;10775;42.678;26.324;2022-11-20T03:46:27;10.48;;;3.22;;
21235;SDS011;10775;42.678;26.324;2022-11-20T03:48:53;5.90;;;3.08;;
21235;SDS011;10775;42.678;26.324;2022-11-20T03:53:46;10.70;;;3.67;;
21235;SDS011;10775;42.678;26.324;2022-11-20T03:56:14;6.30;;;2.40;;
21235;SDS011;10775;42.678;26.324;2022-11-20T03:58:41;10.98;;;3.33;;
21235;SDS011;10775;42.678;26.324;2022-11-20T04:01:08;15.40;;;3.47;;
21235;SDS011;10775;42.678;26.324;2022-11-20T04:03:39;13.18;;;3.35;;
21235;SDS011;10775;42.678;26.324;2022-11-20T04:06:06;10.65;;;3.70;;
21235;SDS011;10775;42.678;26.324;2022-11-20T04:08:32;13.75;;;3.80;;
21235;SDS011;10775;42.678;26.324;2022-11-20T04:11:08;12.65;;;3.72;;
21235;SDS011;10775;42.678;26.324;2022-11-20T04:13:34;11.60;;;3.53;;
21235;SDS011;10775;42.678;26.324;2022-11-20T04:16:00;7.22;;;2.85;;
21235;SDS011;10775;42.678;26.324;2022-11-20T04:18:25;11.38;;;3.85;;
21235;SDS011;10775;42.678;26.324;2022-11-20T04:20:51;10.50;;;3.30;;
21235;SDS011;10775;42.678;26.324;2022-11-20T04:23:16;8.68;;;3.42;;
21235;SDS011;10775;42.678;26.324;2022-11-20T04:25:42;8.50;;;3.88;;
21235;SDS011;10775;42.678;26.324;2022-11-20T04:28:07;7.78;;;3.80;;
21235;SDS011;10775;42.678;26.324;2022-11-20T04:30:33;8.80;;;3.78;;
21235;SDS011;10775;42.678;26.324;2022-11-20T04:32:58;10.25;;;3.63;;
21235;SDS011;10775;42.678;26.324;2022-11-20T04:35:24;7.45;;;2.65;;
21235;SDS011;10775;42.678;26.324;2022-11-20T04:37:52;9.40;;;2.38;;
21235;SDS011;10775;42.678;26.324;2022-11-20T04:40:18;7.22;;;2.60;;
21235;SDS011;10775;42.678;26.324;2022-11-20T04:42:43;11.57;;;3.15;;
21235;SDS011;10775;42.678;26.324;2022-11-20T04:45:09;6.95;;;2.78;;
21235;SDS011;10775;42.678;26.324;2022-11-20T04:47:35;8.98;;;3.38;;
21235;SDS011;10775;42.678;26.324;2022-11-20T04:50:00;10.27;;;3.47;;
21235;SDS011;10775;42.678;26.324;2022-11-20T04:52:26;13.95;;;4.22;;
21235;SDS011;10775;42.678;26.324;2022-11-20T04:54:51;8.45;;;3.78;;
21235;SDS011;10775;42.678;26.324;2022-11-20T04:57:20;10.20;;;3.60;;
21235;SDS011;10775;42.678;26.324;2022-11-20T04:59:46;13.82;;;3.70;;
21235;SDS011;10775;42.678;26.324;2022-11-20T05:02:11;8.75;;;3.35;;
21235;SDS011;10775;42.678;26.324;2022-11-20T05:04:37;8.18;;;3.63;;
21235;SDS011;10775;42.678;26.324;2022-11-20T05:07:02;9.07;;;3.40;;
21235;SDS011;10775;42.678;26.324;2022-11-20T05:09:28;12.77;;;4.07;;
21235;SDS011;10775;42.678;26.324;2022-11-20T05:11:54;9.15;;;3.63;;
21235;SDS011;10775;42.678;26.324;2022-11-20T05:14:20;11.05;;;3.65;;
21235;SDS011;10775;42.678;26.324;2022-11-20T05:16:45;8.30;;;3.78;;
21235;SDS011;10775;42.678;26.324;2022-11-20T05:19:11;5.82;;;2.42;;
21235;SDS011;10775;42.678;26.324;2022-11-20T05:21:36;9.60;;;3.10;;
21235;SDS011;10775;42.678;26.324;2022-11-20T05:24:02;9.02;;;3.80;;
21235;SDS011;10775;42.678;26.324;2022-11-20T05:26:28;8.60;;;3.47;;
21235;SDS011;10775;42.678;26.324;2022-11-20T05:28:53;8.23;;;3.35;;
21235;SDS011;10775;42.678;26.324;2022-11-20T05:31:23;10.32;;;3.53;;
21235;SDS011;10775;42.678;26.324;2022-11-20T05:33:49;8.85;;;3.67;;
21235;SDS011;10775;42.678;26.324;2022-11-20T05:36:15;6.72;;;3.22;;
21235;SDS011;10775;42.678;26.324;2022-11-20T05:38:42;8.75;;;3.10;;
21235;SDS011;10775;42.678;26.324;2022-11-20T05:41:15;7.50;;;3.28;;
21235;SDS011;10775;42.678;26.324;2022-11-20T05:43:43;13.60;;;3.90;;
21235;SDS011;10775;42.678;26.324;2022-11-20T05:46:11;9.13;;;3.67;;
21235;SDS011;10775;42.678;26.324;2022-11-20T05:48:39;6.45;;;3.55;;
21235;SDS011;10775;42.678;26.324;2022-11-20T05:51:07;11.35;;;3.30;;
21235;SDS011;10775;42.678;26.324;2022-11-20T05:53:34;8.63;;;3.58;;
21235;SDS011;10775;42.678;26.324;2022-11-20T05:56:01;10.43;;;3.33;;
21235;SDS011;10775;42.678;26.324;2022-11-20T05:58:32;5.65;;;3.00;;
21235;SDS011;10775;42.678;26.324;2022-11-20T06:01:20;11.40;;;3.85;;
21235;SDS011;10775;42.678;26.324;2022-11-20T06:06:15;9.52;;;3.45;;
21235;SDS011;10775;42.678;26.324;2022-11-20T06:08:42;6.45;;;3.42;;
21235;SDS011;10775;42.678;26.324;2022-11-20T06:11:09;10.25;;;3.63;;
21235;SDS011;10775;42.678;26.324;2022-11-20T06:13:37;10.55;;;2.80;;
21235;SDS011;10775;42.678;26.324;2022-11-20T06:16:03;13.75;;;3.22;;
21235;SDS011;10775;42.678;26.324;2022-11-20T06:18:29;9.18;;;3.78;;
21235;SDS011;10775;42.678;26.324;2022-11-20T06:21:04;8.25;;;3.30;;
21235;SDS011;10775;42.678;26.324;2022-11-20T06:23:32;10.68;;;3.25;;
21235;SDS011;10775;42.678;26.324;2022-11-20T06:26:03;7.22;;;2.83;;
21235;SDS011;10775;42.678;26.324;2022-11-20T06:28:30;10.00;;;3.78;;
21235;SDS011;10775;42.678;26.324;2022-11-20T06:30:56;10.23;;;3.60;;
21235;SDS011;10775;42.678;26.324;2022-11-20T06:33:22;11.38;;;3.20;;
21235;SDS011;10775;42.678;26.324;2022-11-20T06:35:47;15.02;;;3.58;;
21235;SDS011;10775;42.678;26.324;2022-11-20T06:38:13;10.18;;;3.45;;
21235;SDS011;10775;42.678;26.324;2022-11-20T06:40:42;8.00;;;3.17;;
21235;SDS011;10775;42.678;26.324;2022-11-20T06:43:08;11.32;;;3.75;;
21235;SDS011;10775;42.678;26.324;2022-11-20T06:45:34;6.95;;;2.70;;
21235;SDS011;10775;42.678;26.324;2022-11-20T06:48:00;8.00;;;3.00;;
21235;SDS011;10775;42.678;26.324;2022-11-20T06:50:26;11.45;;;3.30;;
21235;SDS011;10775;42.678;26.324;2022-11-20T06:52:51;9.93;;;3.35;;
21235;SDS011;10775;42.678;26.324;2022-11-20T06:55:17;14.40;;;3.33;;
21235;SDS011;10775;42.678;26.324;2022-11-20T06:57:42;12.55;;;3.60;;
21235;SDS011;10775;42.678;26.324;2022-11-20T07:00:08;10.70;;;3.17;;
21235;SDS011;10775;42.678;26.324;2022-11-20T07:02:34;11.00;;;2.95;;
21235;SDS011;10775;42.678;26.324;2022-11-20T07:04:59;10.88;;;3.47;;
21235;SDS011;10775;42.678;26.324;2022-11-20T07:07:25;9.68;;;3.63;;
21235;SDS011;10775;42.678;26.324;2022-11-20T07:09:50;12.50;;;3.53;;
21235;SDS011;10775;42.678;26.324;2022-11-20T07:12:16;13.25;;;4.07;;
21235;SDS011;10775;42.678;26.324;2022-11-20T07:14:41;10.95;;;4.07;;
21235;SDS011;10775;42.678;26.324;2022-11-20T07:17:07;13.85;;;3.85;;
21235;SDS011;10775;42.678;26.324;2022-11-20T07:19:33;9.75;;;3.75;;
21235;SDS011;10775;42.678;26.324;2022-11-20T07:21:58;15.02;;;4.40;;
21235;SDS011;10775;42.678;26.324;2022-11-20T07:24:24;14.73;;;4.60;;
21235;SDS011;10775;42.678;26.324;2022-11-20T07:26:49;14.23;;;4.85;;
21235;SDS011;10775;42.678;26.324;2022-11-20T07:29:15;15.00;;;4.97;;
21235;SDS011;10775;42.678;26.324;2022-11-20T07:31:41;22.10;;;5.65;;
21235;SDS011;10775;42.678;26.324;2022-11-20T07:34:07;16.75;;;5.25;;
21235;SDS011;10775;42.678;26.324;2022-11-20T07:36:33;17.15;;;5.38;;
21235;SDS011;10775;42.678;26.324;2022-11-20T07:38:59;17.92;;;5.82;;
21235;SDS011;10775;42.678;26.324;2022-11-20T07:41:25;9.88;;;5.40;;
21235;SDS011;10775;42.678;26.324;2022-11-20T07:43:50;21.05;;;6.70;;
21235;SDS011;10775;42.678;26.324;2022-11-20T07:46:15;18.80;;;6.55;;
21235;SDS011;10775;42.678;26.324;2022-11-20T07:48:41;17.05;;;7.13;;
21235;SDS011;10775;42.678;26.324;2022-11-20T07:51:07;23.40;;;7.30;;
21235;SDS011;10775;42.678;26.324;2022-11-20T07:53:32;18.40;;;7.80;;
21235;SDS011;10775;42.678;26.324;2022-11-20T07:56:01;20.98;;;7.70;;
21235;SDS011;10775;42.678;26.324;2022-11-20T07:58:31;17.30;;;6.88;;
21235;SDS011;10775;42.678;26.324;2022-11-20T08:03:27;18.87;;;7.30;;
21235;SDS011;10775;42.678;26.324;2022-11-20T08:05:53;15.77;;;6.22;;
21235;SDS011;10775;42.678;26.324;2022-11-20T08:08:18;13.25;;;4.00;;
21235;SDS011;10775;42.678;26.324;2022-11-20T08:10:44;15.98;;;4.78;;
21235;SDS011;10775;42.678;26.324;2022-11-20T08:13:09;12.15;;;4.63;;
21235;SDS011;10775;42.678;26.324;2022-11-20T08:15:54;10.77;;;3.95;;
21235;SDS011;10775;42.678;26.324;2022-11-20T08:18:19;16.67;;;4.50;;
21235;SDS011;10775;42.678;26.324;2022-11-20T08:20:45;9.80;;;4.35;;
21235;SDS011;10775;42.678;26.324;2022-11-20T08:23:10;12.32;;;4.50;;
21235;SDS011;10775;42.678;26.324;2022-11-20T08:25:36;12.75;;;4.38;;
21235;SDS011;10775;42.678;26.324;2022-11-20T08:28:07;14.65;;;4.97;;
21235;SDS011;10775;42.678;26.324;2022-11-20T08:30:34;13.07;;;5.28;;
21235;SDS011;10775;42.678;26.324;2022-11-20T08:33:08;17.92;;;6.10;;
21235;SDS011;10775;42.678;26.324;2022-11-20T08:35:35;13.60;;;5.55;;
21235;SDS011;10775;42.678;26.324;2022-11-20T08:38:03;13.60;;;4.82;;
21235;SDS011;10775;42.678;26.324;2022-11-20T08:40:29;14.43;;;6.47;;
21235;SDS011;10775;42.678;26.324;2022-11-20T08:42:55;13.05;;;6.25;;
21235;SDS011;10775;42.678;26.324;2022-11-20T08:45:20;14.88;;;5.75;;
21235;SDS011;10775;42.678;26.324;2022-11-20T08:47:46;14.07;;;4.78;;
21235;SDS011;10775;42.678;26.324;2022-11-20T08:50:13;14.02;;;4.93;;
21235;SDS011;10775;42.678;26.324;2022-11-20T08:52:39;12.25;;;4.25;;
21235;SDS011;10775;42.678;26.324;2022-11-20T08:55:05;10.75;;;4.72;;
21235;SDS011;10775;42.678;26.324;2022-11-20T08:57:32;12.25;;;5.10;;
21235;SDS011;10775;42.678;26.324;2022-11-20T08:59:58;15.68;;;5.38;;
21235;SDS011;10775;42.678;26.324;2022-11-20T09:02:24;14.70;;;5.85;;
21235;SDS011;10775;42.678;26.324;2022-11-20T09:04:50;16.25;;;5.57;;
21235;SDS011;10775;42.678;26.324;2022-11-20T09:07:16;18.27;;;6.82;;
21235;SDS011;10775;42.678;26.324;2022-11-20T09:09:41;19.45;;;6.22;;
21235;SDS011;10775;42.678;26.324;2022-11-20T09:12:07;12.98;;;5.53;;
21235;SDS011;10775;42.678;26.324;2022-11-20T09:14:32;13.25;;;5.60;;
21235;SDS011;10775;42.678;26.324;2022-11-20T09:16:58;15.32;;;5.65;;
21235;SDS011;10775;42.678;26.324;2022-11-20T09:19:24;13.85;;;4.78;;
21235;SDS011;10775;42.678;26.324;2022-11-20T09:21:50;11.07;;;4.40;;
21235;SDS011;10775;42.678;26.324;2022-11-20T09:24:16;15.30;;;4.30;;
21235;SDS011;10775;42.678;26.324;2022-11-20T09:26:42;12.05;;;3.85;;
21235;SDS011;10775;42.678;26.324;2022-11-20T09:29:07;15.68;;;4.93;;
21235;SDS011;10775;42.678;26.324;2022-11-20T09:31:33;16.55;;;5.88;;
21235;SDS011;10775;42.678;26.324;2022-11-20T09:33:58;18.73;;;6.30;;
21235;SDS011;10775;42.678;26.324;2022-11-20T09:36:24;18.52;;;6.32;;
21235;SDS011;10775;42.678;26.324;2022-11-20T09:38:49;18.92;;;6.80;;
21235;SDS011;10775;42.678;26.324;2022-11-20T09:46:40;24.98;;;7.60;;
21235;SDS011;10775;42.678;26.324;2022-11-20T09:51:45;19.85;;;7.03;;
21235;SDS011;10775;42.678;26.324;2022-11-20T09:54:22;20.45;;;6.63;;
21235;SDS011;10775;42.678;26.324;2022-11-20T09:56:55;13.70;;;4.68;;
21235;SDS011;10775;42.678;26.324;2022-11-20T10:04:43;18.63;;;6.95;;
21235;SDS011;10775;42.678;26.324;2022-11-20T10:07:18;21.42;;;7.38;;
21235;SDS011;10775;42.678;26.324;2022-11-20T10:09:55;19.20;;;6.70;;
21235;SDS011;10775;42.678;26.324;2022-11-20T10:17:55;18.25;;;6.10;;
21235;SDS011;10775;42.678;26.324;2022-11-20T10:25:39;15.43;;;4.30;;
21235;SDS011;10775;42.678;26.324;2022-11-20T10:30:46;10.43;;;4.05;;
21235;SDS011;10775;42.678;26.324;2022-11-20T10:33:23;9.27;;;3.65;;
21235;SDS011;10775;42.678;26.324;2022-11-20T10:38:25;19.00;;;5.93;;
21235;SDS011;10775;42.678;26.324;2022-11-20T10:41:15;13.70;;;4.50;;
21235;SDS011;10775;42.678;26.324;2022-11-20T10:43:56;12.25;;;4.47;;
21235;SDS011;10775;42.678;26.324;2022-11-20T10:46:32;19.73;;;5.45;;
21235;SDS011;10775;42.678;26.324;2022-11-20T10:49:03;14.65;;;4.90;;
21235;SDS011;10775;42.678;26.324;2022-11-20T10:57:25;10.52;;;3.38;;
21235;SDS011;10775;42.678;26.324;2022-11-20T11:00:14;16.13;;;4.00;;
21235;SDS011;10775;42.678;26.324;2022-11-20T11:02:48;10.05;;;2.90;;
21235;SDS011;10775;42.678;26.324;2022-11-20T11:07:58;15.07;;;3.50;;
21235;SDS011;10775;42.678;26.324;2022-11-20T11:10:26;10.23;;;3.13;;
21235;SDS011;10775;42.678;26.324;2022-11-20T11:13:01;13.90;;;3.22;;
21235;SDS011;10775;42.678;26.324;2022-11-20T11:15:28;14.75;;;3.33;;
21235;SDS011;10775;42.678;26.324;2022-11-20T11:17:54;5.65;;;2.20;;
21235;SDS011;10775;42.678;26.324;2022-11-20T11:20:25;11.93;;;3.15;;
21235;SDS011;10775;42.678;26.324;2022-11-20T11:22:52;8.75;;;2.40;;
21235;SDS011;10775;42.678;26.324;2022-11-20T11:27:47;18.25;;;3.22;;
21235;SDS011;10775;42.678;26.324;2022-11-20T11:30:14;17.10;;;3.20;;
21235;SDS011;10775;42.678;26.324;2022-11-20T11:32:42;10.68;;;3.22;;
21235;SDS011;10775;42.678;26.324;2022-11-20T11:35:20;24.00;;;3.72;;
21235;SDS011;10775;42.678;26.324;2022-11-20T11:37:48;13.40;;;3.38;;
21235;SDS011;10775;42.678;26.324;2022-11-20T11:40:16;16.02;;;3.50;;
21235;SDS011;10775;42.678;26.324;2022-11-20T11:42:44;19.17;;;3.97;;
21235;SDS011;10775;42.678;26.324;2022-11-20T11:45:16;21.48;;;3.88;;
21235;SDS011;10775;42.678;26.324;2022-11-20T11:52:38;13.10;;;5.13;;
21235;SDS011;10775;42.678;26.324;2022-11-20T11:55:14;20.02;;;4.45;;
21235;SDS011;10775;42.678;26.324;2022-11-20T12:00:22;8.60;;;2.50;;
21235;SDS011;10775;42.678;26.324;2022-11-20T12:02:52;15.32;;;3.65;;
21235;SDS011;10775;42.678;26.324;2022-11-20T12:16:07;13.30;;;3.45;;
21235;SDS011;10775;42.678;26.324;2022-11-20T12:18:38;16.48;;;3.55;;
21235;SDS011;10775;42.678;26.324;2022-11-20T12:24:21;17.25;;;3.45;;
21235;SDS011;10775;42.678;26.324;2022-11-20T12:43:31;10.77;;;4.10;;
21235;SDS011;10775;42.678;26.324;2022-11-20T12:46:43;26.13;;;7.85;;
21235;SDS011;10775;42.678;26.324;2022-11-20T12:51:51;24.60;;;5.35;;
21235;SDS011;10775;42.678;26.324;2022-11-20T13:00:15;21.98;;;4.80;;
21235;SDS011;10775;42.678;26.324;2022-11-20T13:08:06;18.05;;;4.50;;
21235;SDS011;10775;42.678;26.324;2022-11-20T13:10:45;19.13;;;4.72;;
21235;SDS011;10775;42.678;26.324;2022-11-20T13:18:56;23.40;;;5.40;;
21235;SDS011;10775;42.678;26.324;2022-11-20T13:21:46;16.90;;;4.90;;
21235;SDS011;10775;42.678;26.324;2022-11-20T13:27:33;16.88;;;3.33;;
21235;SDS011;10775;42.678;26.324;2022-11-20T13:29:35;10.48;;;2.10;;
21235;SDS011;10775;42.678;26.324;2022-11-20T13:34:29;12.38;;;4.20;;
21235;SDS011;10775;42.678;26.324;2022-11-20T13:36:56;14.55;;;4.38;;
21235;SDS011;10775;42.678;26.324;2022-11-20T13:39:33;21.48;;;5.55;;
21235;SDS011;10775;42.678;26.324;2022-11-20T13:42:20;17.52;;;3.95;;
21235;SDS011;10775;42.678;26.324;2022-11-20T13:44:53;17.05;;;3.78;;
21235;SDS011;10775;42.678;26.324;2022-11-20T13:47:21;16.63;;;3.75;;
21235;SDS011;10775;42.678;26.324;2022-11-20T13:49:48;15.85;;;4.07;;
21235;SDS011;10775;42.678;26.324;2022-11-20T14:00:51;17.70;;;3.90;;
21235;SDS011;10775;42.678;26.324;2022-11-20T14:03:22;20.60;;;4.18;;
21235;SDS011;10775;42.678;26.324;2022-11-20T14:05:57;18.42;;;3.58;;
21235;SDS011;10775;42.678;26.324;2022-11-20T14:08:31;16.25;;;4.70;;
21235;SDS011;10775;42.678;26.324;2022-11-20T14:11:31;19.52;;;3.92;;
21235;SDS011;10775;42.678;26.324;2022-11-20T14:13:58;16.67;;;3.28;;
21235;SDS011;10775;42.678;26.324;2022-11-20T14:16:29;10.00;;;3.33;;
21235;SDS011;10775;42.678;26.324;2022-11-20T14:18:57;24.90;;;5.10;;
21235;SDS011;10775;42.678;26.324;2022-11-20T14:21:42;20.80;;;5.13;;
21235;SDS011;10775;42.678;26.324;2022-11-20T14:24:10;20.67;;;3.85;;
21235;SDS011;10775;42.678;26.324;2022-11-20T14:26:43;16.33;;;3.87;;
21235;SDS011;10775;42.678;26.324;2022-11-20T14:29:21;20.65;;;4.40;;
21235;SDS011;10775;42.678;26.324;2022-11-20T14:31:53;27.00;;;8.00;;
21235;SDS011;10775;42.678;26.324;2022-11-20T14:34:30;33.30;;;11.50;;
21235;SDS011;10775;42.678;26.324;2022-11-20T14:37:01;33.17;;;10.60;;
21235;SDS011;10775;42.678;26.324;2022-11-20T14:39:31;20.45;;;6.88;;
21235;SDS011;10775;42.678;26.324;2022-11-20T14:41:59;21.80;;;6.40;;
21235;SDS011;10775;42.678;26.324;2022-11-20T14:44:27;24.20;;;9.20;;
21235;SDS011;10775;42.678;26.324;2022-11-20T14:46:55;31.95;;;11.57;;
21235;SDS011;10775;42.678;26.324;2022-11-20T14:49:22;25.15;;;6.32;;
21235;SDS011;10775;42.678;26.324;2022-11-20T14:51:58;24.95;;;6.32;;
21235;SDS011;10775;42.678;26.324;2022-11-20T14:54:42;30.95;;;4.78;;
21235;SDS011;10775;42.678;26.324;2022-11-20T14:57:18;23.70;;;6.55;;
21235;SDS011;10775;42.678;26.324;2022-11-20T14:59:50;39.78;;;12.10;;
21235;SDS011;10775;42.678;26.324;2022-11-20T15:02:16;24.15;;;5.40;;
21235;SDS011;10775;42.678;26.324;2022-11-20T15:04:46;28.52;;;5.75;;
21235;SDS011;10775;42.678;26.324;2022-11-20T15:07:28;21.48;;;3.92;;
21235;SDS011;10775;42.678;26.324;2022-11-20T15:12:31;13.82;;;3.58;;
21235;SDS011;10775;42.678;26.324;2022-11-20T15:14:58;24.52;;;6.20;;
21235;SDS011;10775;42.678;26.324;2022-11-20T15:17:26;23.98;;;6.10;;
21235;SDS011;10775;42.678;26.324;2022-11-20T15:19:52;22.80;;;6.63;;
21235;SDS011;10775;42.678;26.324;2022-11-20T15:22:18;28.17;;;10.52;;
21235;SDS011;10775;42.678;26.324;2022-11-20T15:24:44;23.13;;;8.23;;
21235;SDS011;10775;42.678;26.324;2022-11-20T15:27:10;23.80;;;6.97;;
21235;SDS011;10775;42.678;26.324;2022-11-20T15:29:35;20.42;;;6.53;;
21235;SDS011;10775;42.678;26.324;2022-11-20T15:32:01;18.13;;;5.15;;
21235;SDS011;10775;42.678;26.324;2022-11-20T15:34:27;26.67;;;6.40;;
21235;SDS011;10775;42.678;26.324;2022-11-20T15:36:53;18.02;;;3.80;;
21235;SDS011;10775;42.678;26.324;2022-11-20T15:39:19;19.70;;;4.40;;
21235;SDS011;10775;42.678;26.324;2022-11-20T15:41:45;22.98;;;4.43;;
21235;SDS011;10775;42.678;26.324;2022-11-20T15:44:11;24.00;;;4.13;;
21235;SDS011;10775;42.678;26.324;2022-11-20T15:46:37;24.80;;;6.28;;
21235;SDS011;10775;42.678;26.324;2022-11-20T15:51:44;21.48;;;4.03;;
21235;SDS011;10775;42.678;26.324;2022-11-20T15:54:13;22.13;;;5.60;;
21235;SDS011;10775;42.678;26.324;2022-11-20T15:56:41;9.60;;;2.42;;
21235;SDS011;10775;42.678;26.324;2022-11-20T15:59:06;24.50;;;5.00;;
21235;SDS011;10775;42.678;26.324;2022-11-20T16:01:32;25.88;;;4.65;;
21235;SDS011;10775;42.678;26.324;2022-11-20T16:03:58;20.80;;;3.45;;
21235;SDS011;10775;42.678;26.324;2022-11-20T16:06:24;20.30;;;4.35;;
21235;SDS011;10775;42.678;26.324;2022-11-20T16:08:50;23.63;;;4.47;;
21235;SDS011;10775;42.678;26.324;2022-11-20T16:11:16;25.45;;;4.75;;
21235;SDS011;10775;42.678;26.324;2022-11-20T16:13:43;21.50;;;4.65;;
21235;SDS011;10775;42.678;26.324;2022-11-20T16:16:31;25.45;;;4.72;;
21235;SDS011;10775;42.678;26.324;2022-11-20T16:19:00;22.02;;;4.82;;
21235;SDS011;10775;42.678;26.324;2022-11-20T16:21:26;24.92;;;5.35;;
21235;SDS011;10775;42.678;26.324;2022-11-20T16:23:58;25.13;;;5.37;;
21235;SDS011;10775;42.678;26.324;2022-11-20T16:26:25;21.75;;;4.80;;
21235;SDS011;10775;42.678;26.324;2022-11-20T16:28:50;22.27;;;5.75;;
21235;SDS011;10775;42.678;26.324;2022-11-20T16:31:16;29.30;;;5.78;;
21235;SDS011;10775;42.678;26.324;2022-11-20T16:33:43;19.90;;;4.95;;
21235;SDS011;10775;42.678;26.324;2022-11-20T16:36:15;22.00;;;5.30;;
21235;SDS011;10775;42.678;26.324;2022-11-20T16:38:41;30.83;;;6.07;;
21235;SDS011;10775;42.678;26.324;2022-11-20T16:41:06;29.42;;;6.20;;
21235;SDS011;10775;42.678;26.324;2022-11-20T16:43:43;24.83;;;5.43;;
21235;SDS011;10775;42.678;26.324;2022-11-20T16:46:11;25.17;;;5.28;;